sensor_id;sensor_type;location;lat;lon;timestamp;P1;durP1;ratioP1;P2;durP2;ratioP2
11933;SDS011;6026;48.784;9.198;2022-09-12T00:02:19;0.90;;;0.90;;
11933;SDS011;6026;48.784;9.198;2022-09-12T00:04:45;0.93;;;0.93;;
11933;SDS011;6026;48.784;9.198;2022-09-12T00:07:11;0.70;;;0.70;;
11933;SDS011;6026;48.784;9.198;2022-09-12T00:09:36;0.80;;;0.80;;
11933;SDS011;6026;48.784;9.198;2022-09-12T00:12:02;0.80;;;0.80;;
11933;SDS011;6026;48.784;9.198;2022-09-12T00:14:28;0.90;;;0.90;;
11933;SDS011;6026;48.784;9.198;2022-09-12T00:16:56;0.80;;;0.80;;
11933;SDS011;6026;48.784;9.198;2022-09-12T00:19:23;0.57;;;0.57;;
11933;SDS011;6026;48.784;9.198;2022-09-12T00:21:49;0.87;;;0.87;;
11933;SDS011;6026;48.784;9.198;2022-09-12T00:24:15;0.80;;;0.80;;
11933;SDS011;6026;48.784;9.198;2022-09-12T00:26:40;0.80;;;0.80;;
11933;SDS011;6026;48.784;9.198;2022-09-12T00:29:06;0.70;;;0.70;;
11933;SDS011;6026;48.784;9.198;2022-09-12T00:31:31;0.70;;;0.70;;
11933;SDS011;6026;48.784;9.198;2022-09-12T00:33:57;0.90;;;0.90;;
11933;SDS011;6026;48.784;9.198;2022-09-12T00:36:25;0.70;;;0.70;;
11933;SDS011;6026;48.784;9.198;2022-09-12T00:38:52;0.80;;;0.80;;
11933;SDS011;6026;48.784;9.198;2022-09-12T00:41:23;0.90;;;0.90;;
11933;SDS011;6026;48.784;9.198;2022-09-12T00:43:55;0.70;;;0.70;;
11933;SDS011;6026;48.784;9.198;2022-09-12T00:51:40;0.60;;;0.60;;
11933;SDS011;6026;48.784;9.198;2022-09-12T00:54:11;0.80;;;0.80;;
11933;SDS011;6026;48.784;9.198;2022-09-12T00:56:41;0.90;;;0.90;;
11933;SDS011;6026;48.784;9.198;2022-09-12T00:59:10;0.70;;;0.70;;
11933;SDS011;6026;48.784;9.198;2022-09-12T01:01:42;0.77;;;0.77;;
11933;SDS011;6026;48.784;9.198;2022-09-12T01:04:09;0.80;;;0.80;;
11933;SDS011;6026;48.784;9.198;2022-09-12T01:06:39;0.70;;;0.70;;
11933;SDS011;6026;48.784;9.198;2022-09-12T01:09:07;0.80;;;0.80;;
11933;SDS011;6026;48.784;9.198;2022-09-12T01:11:39;0.90;;;0.90;;
11933;SDS011;6026;48.784;9.198;2022-09-12T01:14:06;0.80;;;0.80;;
11933;SDS011;6026;48.784;9.198;2022-09-12T01:16:36;0.70;;;0.70;;
11933;SDS011;6026;48.784;9.198;2022-09-12T01:42:09;0.80;;;0.80;;
11933;SDS011;6026;48.784;9.198;2022-09-12T01:47:40;0.70;;;0.70;;
11933;SDS011;6026;48.784;9.198;2022-09-12T01:50:31;0.70;;;0.70;;
11933;SDS011;6026;48.784;9.198;2022-09-12T01:53:07;0.90;;;0.90;;
11933;SDS011;6026;48.784;9.198;2022-09-12T01:56:21;0.70;;;0.70;;
11933;SDS011;6026;48.784;9.198;2022-09-12T01:58:37;0.60;;;0.60;;
11933;SDS011;6026;48.784;9.198;2022-09-12T02:01:30;0.80;;;0.80;;
11933;SDS011;6026;48.784;9.198;2022-09-12T02:06:36;0.80;;;0.80;;
11933;SDS011;6026;48.784;9.198;2022-09-12T02:09:08;0.80;;;0.80;;
11933;SDS011;6026;48.784;9.198;2022-09-12T02:11:40;0.70;;;0.70;;
11933;SDS011;6026;48.784;9.198;2022-09-12T02:17:15;0.80;;;0.80;;
11933;SDS011;6026;48.784;9.198;2022-09-12T02:19:45;0.80;;;0.80;;
11933;SDS011;6026;48.784;9.198;2022-09-12T02:22:16;0.70;;;0.70;;
11933;SDS011;6026;48.784;9.198;2022-09-12T02:24:47;0.70;;;0.70;;
11933;SDS011;6026;48.784;9.198;2022-09-12T02:27:20;0.80;;;0.80;;
11933;SDS011;6026;48.784;9.198;2022-09-12T02:29:48;0.90;;;0.90;;
11933;SDS011;6026;48.784;9.198;2022-09-12T02:37:41;0.80;;;0.80;;
11933;SDS011;6026;48.784;9.198;2022-09-12T02:40:12;0.80;;;0.80;;
11933;SDS011;6026;48.784;9.198;2022-09-12T02:42:39;0.80;;;0.80;;
11933;SDS011;6026;48.784;9.198;2022-09-12T02:45:05;0.80;;;0.80;;
11933;SDS011;6026;48.784;9.198;2022-09-12T02:50:09;0.90;;;0.90;;
11933;SDS011;6026;48.784;9.198;2022-09-12T02:52:35;0.73;;;0.73;;
11933;SDS011;6026;48.784;9.198;2022-09-12T02:55:02;0.73;;;0.73;;
11933;SDS011;6026;48.784;9.198;2022-09-12T02:57:29;0.77;;;0.77;;
11933;SDS011;6026;48.784;9.198;2022-09-12T02:59:56;0.83;;;0.83;;
11933;SDS011;6026;48.784;9.198;2022-09-12T03:02:26;0.90;;;0.90;;
11933;SDS011;6026;48.784;9.198;2022-09-12T03:21:32;0.80;;;0.80;;
11933;SDS011;6026;48.784;9.198;2022-09-12T03:24:17;0.80;;;0.80;;
11933;SDS011;6026;48.784;9.198;2022-09-12T03:26:51;0.73;;;0.73;;
11933;SDS011;6026;48.784;9.198;2022-09-12T03:29:27;0.60;;;0.60;;
11933;SDS011;6026;48.784;9.198;2022-09-12T03:31:55;0.80;;;0.80;;
11933;SDS011;6026;48.784;9.198;2022-09-12T03:34:23;0.70;;;0.70;;
11933;SDS011;6026;48.784;9.198;2022-09-12T03:36:50;0.80;;;0.80;;
11933;SDS011;6026;48.784;9.198;2022-09-12T03:39:16;0.70;;;0.70;;
11933;SDS011;6026;48.784;9.198;2022-09-12T03:41:42;0.70;;;0.70;;
11933;SDS011;6026;48.784;9.198;2022-09-12T03:44:08;0.80;;;0.80;;
11933;SDS011;6026;48.784;9.198;2022-09-12T03:46:33;0.83;;;0.83;;
11933;SDS011;6026;48.784;9.198;2022-09-12T03:48:59;0.80;;;0.80;;
11933;SDS011;6026;48.784;9.198;2022-09-12T03:51:24;0.90;;;0.90;;
11933;SDS011;6026;48.784;9.198;2022-09-12T03:53:50;0.80;;;0.80;;
11933;SDS011;6026;48.784;9.198;2022-09-12T03:56:15;0.70;;;0.70;;
11933;SDS011;6026;48.784;9.198;2022-09-12T03:58:43;0.80;;;0.80;;
11933;SDS011;6026;48.784;9.198;2022-09-12T04:01:09;0.80;;;0.80;;
11933;SDS011;6026;48.784;9.198;2022-09-12T04:03:40;0.70;;;0.70;;
11933;SDS011;6026;48.784;9.198;2022-09-12T04:09:02;0.80;;;0.80;;
11933;SDS011;6026;48.784;9.198;2022-09-12T04:11:28;0.90;;;0.90;;
11933;SDS011;6026;48.784;9.198;2022-09-12T04:13:54;0.80;;;0.80;;
11933;SDS011;6026;48.784;9.198;2022-09-12T04:16:19;1.13;;;1.13;;
11933;SDS011;6026;48.784;9.198;2022-09-12T04:18:45;0.90;;;0.90;;
11933;SDS011;6026;48.784;9.198;2022-09-12T04:21:12;0.70;;;0.70;;
11933;SDS011;6026;48.784;9.198;2022-09-12T04:23:40;0.87;;;0.87;;
11933;SDS011;6026;48.784;9.198;2022-09-12T04:26:06;0.73;;;0.73;;
11933;SDS011;6026;48.784;9.198;2022-09-12T04:28:32;0.70;;;0.70;;
11933;SDS011;6026;48.784;9.198;2022-09-12T04:31:03;0.80;;;0.80;;
11933;SDS011;6026;48.784;9.198;2022-09-12T04:33:31;0.70;;;0.70;;
11933;SDS011;6026;48.784;9.198;2022-09-12T04:36:04;0.70;;;0.70;;
11933;SDS011;6026;48.784;9.198;2022-09-12T04:38:32;0.70;;;0.70;;
11933;SDS011;6026;48.784;9.198;2022-09-12T04:40:58;0.60;;;0.60;;
11933;SDS011;6026;48.784;9.198;2022-09-12T04:43:24;0.70;;;0.70;;
11933;SDS011;6026;48.784;9.198;2022-09-12T04:45:50;0.70;;;0.70;;
11933;SDS011;6026;48.784;9.198;2022-09-12T04:48:16;0.80;;;0.80;;
11933;SDS011;6026;48.784;9.198;2022-09-12T04:50:41;0.70;;;0.70;;
11933;SDS011;6026;48.784;9.198;2022-09-12T04:53:07;0.70;;;0.70;;
11933;SDS011;6026;48.784;9.198;2022-09-12T04:55:33;0.80;;;0.80;;
11933;SDS011;6026;48.784;9.198;2022-09-12T04:57:59;0.80;;;0.80;;
11933;SDS011;6026;48.784;9.198;2022-09-12T05:00:25;0.80;;;0.80;;
11933;SDS011;6026;48.784;9.198;2022-09-12T05:02:51;0.90;;;0.90;;
11933;SDS011;6026;48.784;9.198;2022-09-12T05:05:16;0.70;;;0.70;;
11933;SDS011;6026;48.784;9.198;2022-09-12T05:07:42;0.80;;;0.80;;
11933;SDS011;6026;48.784;9.198;2022-09-12T05:10:08;0.70;;;0.70;;
11933;SDS011;6026;48.784;9.198;2022-09-12T05:12:34;0.63;;;0.63;;
11933;SDS011;6026;48.784;9.198;2022-09-12T05:15:00;0.83;;;0.83;;
11933;SDS011;6026;48.784;9.198;2022-09-12T05:17:27;0.80;;;0.80;;
11933;SDS011;6026;48.784;9.198;2022-09-12T05:19:53;0.73;;;0.73;;
11933;SDS011;6026;48.784;9.198;2022-09-12T05:22:19;0.73;;;0.73;;
11933;SDS011;6026;48.784;9.198;2022-09-12T05:24:45;0.80;;;0.80;;
11933;SDS011;6026;48.784;9.198;2022-09-12T05:30:34;0.80;;;0.80;;
11933;SDS011;6026;48.784;9.198;2022-09-12T05:32:59;0.80;;;0.80;;
11933;SDS011;6026;48.784;9.198;2022-09-12T05:35:25;0.70;;;0.70;;
11933;SDS011;6026;48.784;9.198;2022-09-12T05:37:50;0.60;;;0.60;;
11933;SDS011;6026;48.784;9.198;2022-09-12T05:40:23;0.80;;;0.80;;
11933;SDS011;6026;48.784;9.198;2022-09-12T05:42:49;0.80;;;0.80;;
11933;SDS011;6026;48.784;9.198;2022-09-12T05:45:15;0.60;;;0.60;;
11933;SDS011;6026;48.784;9.198;2022-09-12T05:47:41;0.70;;;0.70;;
11933;SDS011;6026;48.784;9.198;2022-09-12T05:50:07;0.87;;;0.87;;
11933;SDS011;6026;48.784;9.198;2022-09-12T05:52:35;0.80;;;0.80;;
11933;SDS011;6026;48.784;9.198;2022-09-12T05:55:01;0.80;;;0.80;;
11933;SDS011;6026;48.784;9.198;2022-09-12T05:57:26;0.80;;;0.80;;
11933;SDS011;6026;48.784;9.198;2022-09-12T05:59:53;0.70;;;0.70;;
11933;SDS011;6026;48.784;9.198;2022-09-12T06:02:18;0.60;;;0.60;;
11933;SDS011;6026;48.784;9.198;2022-09-12T06:04:44;0.80;;;0.80;;
11933;SDS011;6026;48.784;9.198;2022-09-12T06:07:10;0.90;;;0.90;;
11933;SDS011;6026;48.784;9.198;2022-09-12T06:09:35;0.80;;;0.80;;
11933;SDS011;6026;48.784;9.198;2022-09-12T06:12:01;0.77;;;0.77;;
11933;SDS011;6026;48.784;9.198;2022-09-12T06:14:27;0.90;;;0.90;;
11933;SDS011;6026;48.784;9.198;2022-09-12T06:16:53;0.80;;;0.80;;
11933;SDS011;6026;48.784;9.198;2022-09-12T06:19:19;0.80;;;0.80;;
11933;SDS011;6026;48.784;9.198;2022-09-12T06:21:46;0.80;;;0.80;;
11933;SDS011;6026;48.784;9.198;2022-09-12T06:24:13;0.70;;;0.70;;
11933;SDS011;6026;48.784;9.198;2022-09-12T06:26:42;0.80;;;0.80;;
11933;SDS011;6026;48.784;9.198;2022-09-12T06:29:09;0.83;;;0.83;;
11933;SDS011;6026;48.784;9.198;2022-09-12T06:31:36;0.80;;;0.80;;
11933;SDS011;6026;48.784;9.198;2022-09-12T06:34:04;0.70;;;0.70;;
11933;SDS011;6026;48.784;9.198;2022-09-12T06:36:32;0.90;;;0.90;;
11933;SDS011;6026;48.784;9.198;2022-09-12T06:39:01;0.70;;;0.70;;
11933;SDS011;6026;48.784;9.198;2022-09-12T06:41:31;0.70;;;0.70;;
11933;SDS011;6026;48.784;9.198;2022-09-12T06:43:57;0.70;;;0.70;;
11933;SDS011;6026;48.784;9.198;2022-09-12T06:46:24;0.60;;;0.60;;
11933;SDS011;6026;48.784;9.198;2022-09-12T06:48:51;0.70;;;0.70;;
11933;SDS011;6026;48.784;9.198;2022-09-12T06:51:18;0.80;;;0.80;;
11933;SDS011;6026;48.784;9.198;2022-09-12T06:53:44;0.90;;;0.90;;
11933;SDS011;6026;48.784;9.198;2022-09-12T06:56:15;0.83;;;0.83;;
11933;SDS011;6026;48.784;9.198;2022-09-12T06:58:45;0.63;;;0.63;;
11933;SDS011;6026;48.784;9.198;2022-09-12T07:01:17;0.73;;;0.73;;
11933;SDS011;6026;48.784;9.198;2022-09-12T07:03:48;0.80;;;0.80;;
11933;SDS011;6026;48.784;9.198;2022-09-12T07:06:16;0.90;;;0.90;;
11933;SDS011;6026;48.784;9.198;2022-09-12T07:08:43;0.90;;;0.90;;
11933;SDS011;6026;48.784;9.198;2022-09-12T07:11:14;0.50;;;0.50;;
11933;SDS011;6026;48.784;9.198;2022-09-12T07:13:42;0.80;;;0.80;;
11933;SDS011;6026;48.784;9.198;2022-09-12T07:16:08;0.90;;;0.90;;
11933;SDS011;6026;48.784;9.198;2022-09-12T07:18:35;0.60;;;0.60;;
11933;SDS011;6026;48.784;9.198;2022-09-12T07:21:09;0.70;;;0.70;;
11933;SDS011;6026;48.784;9.198;2022-09-12T07:23:37;0.67;;;0.67;;
11933;SDS011;6026;48.784;9.198;2022-09-12T07:26:04;0.87;;;0.87;;
11933;SDS011;6026;48.784;9.198;2022-09-12T07:28:30;0.80;;;0.80;;
11933;SDS011;6026;48.784;9.198;2022-09-12T07:31:03;0.80;;;0.80;;
11933;SDS011;6026;48.784;9.198;2022-09-12T07:33:39;0.70;;;0.70;;
11933;SDS011;6026;48.784;9.198;2022-09-12T07:36:06;1.00;;;1.00;;
11933;SDS011;6026;48.784;9.198;2022-09-12T07:38:35;0.90;;;0.90;;
11933;SDS011;6026;48.784;9.198;2022-09-12T07:41:08;0.80;;;0.80;;
11933;SDS011;6026;48.784;9.198;2022-09-12T07:43:35;0.87;;;0.87;;
11933;SDS011;6026;48.784;9.198;2022-09-12T07:46:00;0.60;;;0.60;;
11933;SDS011;6026;48.784;9.198;2022-09-12T07:48:26;0.80;;;0.80;;
11933;SDS011;6026;48.784;9.198;2022-09-12T07:51:01;0.70;;;0.70;;
11933;SDS011;6026;48.784;9.198;2022-09-12T07:53:38;0.67;;;0.67;;
11933;SDS011;6026;48.784;9.198;2022-09-12T07:56:06;0.60;;;0.60;;
11933;SDS011;6026;48.784;9.198;2022-09-12T08:01:31;0.67;;;0.67;;
11933;SDS011;6026;48.784;9.198;2022-09-12T08:03:57;0.60;;;0.60;;
11933;SDS011;6026;48.784;9.198;2022-09-12T08:06:24;0.67;;;0.67;;
11933;SDS011;6026;48.784;9.198;2022-09-12T08:08:51;0.70;;;0.70;;
11933;SDS011;6026;48.784;9.198;2022-09-12T08:11:20;0.63;;;0.63;;
11933;SDS011;6026;48.784;9.198;2022-09-12T08:13:47;0.60;;;0.60;;
11933;SDS011;6026;48.784;9.198;2022-09-12T08:16:14;0.80;;;0.80;;
11933;SDS011;6026;48.784;9.198;2022-09-12T08:18:47;0.77;;;0.77;;
11933;SDS011;6026;48.784;9.198;2022-09-12T08:21:21;0.83;;;0.83;;
11933;SDS011;6026;48.784;9.198;2022-09-12T08:23:52;0.60;;;0.60;;
11933;SDS011;6026;48.784;9.198;2022-09-12T08:26:20;0.80;;;0.80;;
11933;SDS011;6026;48.784;9.198;2022-09-12T08:28:46;0.80;;;0.80;;
11933;SDS011;6026;48.784;9.198;2022-09-12T08:31:13;1.27;;;1.27;;
11933;SDS011;6026;48.784;9.198;2022-09-12T08:33:40;0.80;;;0.80;;
11933;SDS011;6026;48.784;9.198;2022-09-12T08:38:36;0.70;;;0.70;;
11933;SDS011;6026;48.784;9.198;2022-09-12T08:41:07;0.80;;;0.80;;
11933;SDS011;6026;48.784;9.198;2022-09-12T08:46:35;0.70;;;0.70;;
11933;SDS011;6026;48.784;9.198;2022-09-12T08:55:22;0.85;;;0.85;;
11933;SDS011;6026;48.784;9.198;2022-09-12T08:57:58;0.70;;;0.70;;
11933;SDS011;6026;48.784;9.198;2022-09-12T09:10:11;0.90;;;0.90;;
11933;SDS011;6026;48.784;9.198;2022-09-12T09:12:59;0.90;;;0.90;;
11933;SDS011;6026;48.784;9.198;2022-09-12T09:16:11;0.90;;;0.90;;
11933;SDS011;6026;48.784;9.198;2022-09-12T09:18:45;0.65;;;0.65;;
11933;SDS011;6026;48.784;9.198;2022-09-12T09:21:24;0.90;;;0.90;;
11933;SDS011;6026;48.784;9.198;2022-09-12T09:24:05;1.20;;;1.20;;
11933;SDS011;6026;48.784;9.198;2022-09-12T09:26:40;1.00;;;1.00;;
11933;SDS011;6026;48.784;9.198;2022-09-12T09:29:14;0.85;;;0.85;;
11933;SDS011;6026;48.784;9.198;2022-09-12T09:31:50;0.90;;;0.90;;
11933;SDS011;6026;48.784;9.198;2022-09-12T09:34:22;0.90;;;0.90;;
11933;SDS011;6026;48.784;9.198;2022-09-12T09:40:06;1.00;;;1.00;;
11933;SDS011;6026;48.784;9.198;2022-09-12T09:45:26;0.90;;;0.90;;
11933;SDS011;6026;48.784;9.198;2022-09-12T09:50:25;1.00;;;1.00;;
11933;SDS011;6026;48.784;9.198;2022-09-12T09:52:52;1.00;;;1.00;;
11933;SDS011;6026;48.784;9.198;2022-09-12T09:55:22;1.00;;;1.00;;
11933;SDS011;6026;48.784;9.198;2022-09-12T09:57:52;0.85;;;0.85;;
11933;SDS011;6026;48.784;9.198;2022-09-12T10:05:57;1.00;;;1.00;;
11933;SDS011;6026;48.784;9.198;2022-09-12T10:08:46;0.90;;;0.90;;
11933;SDS011;6026;48.784;9.198;2022-09-12T10:11:20;1.00;;;1.00;;
11933;SDS011;6026;48.784;9.198;2022-09-12T10:16:24;1.10;;;1.10;;
11933;SDS011;6026;48.784;9.198;2022-09-12T10:18:52;1.00;;;1.00;;
11933;SDS011;6026;48.784;9.198;2022-09-12T10:24:23;1.00;;;1.00;;
11933;SDS011;6026;48.784;9.198;2022-09-12T10:33:22;1.00;;;1.00;;
11933;SDS011;6026;48.784;9.198;2022-09-12T10:35:50;1.00;;;1.00;;
11933;SDS011;6026;48.784;9.198;2022-09-12T10:38:25;1.00;;;1.00;;
11933;SDS011;6026;48.784;9.198;2022-09-12T10:40:56;0.90;;;0.90;;
11933;SDS011;6026;48.784;9.198;2022-09-12T10:48:45;0.95;;;0.95;;
11933;SDS011;6026;48.784;9.198;2022-09-12T10:54:07;1.00;;;1.00;;
11933;SDS011;6026;48.784;9.198;2022-09-12T10:56:36;1.20;;;1.20;;
11933;SDS011;6026;48.784;9.198;2022-09-12T11:02:08;1.02;;;1.02;;
11933;SDS011;6026;48.784;9.198;2022-09-12T11:05:01;1.10;;;1.10;;
11933;SDS011;6026;48.784;9.198;2022-09-12T11:07:45;1.00;;;1.00;;
11933;SDS011;6026;48.784;9.198;2022-09-12T11:21:21;1.02;;;1.02;;
11933;SDS011;6026;48.784;9.198;2022-09-12T11:35:26;1.10;;;1.10;;
11933;SDS011;6026;48.784;9.198;2022-09-12T11:40:51;1.10;;;1.10;;
11933;SDS011;6026;48.784;9.198;2022-09-12T11:45:45;1.10;;;1.10;;
11933;SDS011;6026;48.784;9.198;2022-09-12T11:51:17;1.00;;;1.00;;
11933;SDS011;6026;48.784;9.198;2022-09-12T11:53:45;1.08;;;1.08;;
11933;SDS011;6026;48.784;9.198;2022-09-12T11:56:33;1.10;;;1.10;;
11933;SDS011;6026;48.784;9.198;2022-09-12T11:59:03;1.05;;;1.05;;
11933;SDS011;6026;48.784;9.198;2022-09-12T12:01:39;1.00;;;1.00;;
11933;SDS011;6026;48.784;9.198;2022-09-12T12:04:10;1.08;;;1.08;;
11933;SDS011;6026;48.784;9.198;2022-09-12T12:06:48;1.00;;;1.00;;
11933;SDS011;6026;48.784;9.198;2022-09-12T12:09:18;1.05;;;1.05;;
11933;SDS011;6026;48.784;9.198;2022-09-12T12:11:46;1.08;;;1.08;;
11933;SDS011;6026;48.784;9.198;2022-09-12T12:14:25;1.10;;;1.10;;
11933;SDS011;6026;48.784;9.198;2022-09-12T12:16:59;1.10;;;1.10;;
11933;SDS011;6026;48.784;9.198;2022-09-12T12:19:31;1.10;;;1.10;;
11933;SDS011;6026;48.784;9.198;2022-09-12T12:22:13;1.08;;;1.08;;
11933;SDS011;6026;48.784;9.198;2022-09-12T12:31:08;1.10;;;1.10;;
11933;SDS011;6026;48.784;9.198;2022-09-12T12:38:33;1.10;;;1.10;;
11933;SDS011;6026;48.784;9.198;2022-09-12T12:43:41;1.15;;;1.15;;
11933;SDS011;6026;48.784;9.198;2022-09-12T12:46:21;1.10;;;1.10;;
11933;SDS011;6026;48.784;9.198;2022-09-12T12:51:34;1.10;;;1.10;;
11933;SDS011;6026;48.784;9.198;2022-09-12T12:54:05;1.10;;;1.10;;
11933;SDS011;6026;48.784;9.198;2022-09-12T12:59:57;1.13;;;1.13;;
11933;SDS011;6026;48.784;9.198;2022-09-12T13:04:57;1.10;;;1.10;;
11933;SDS011;6026;48.784;9.198;2022-09-12T13:07:28;1.10;;;1.10;;
11933;SDS011;6026;48.784;9.198;2022-09-12T13:09:56;1.02;;;1.02;;
11933;SDS011;6026;48.784;9.198;2022-09-12T13:12:25;1.10;;;1.10;;
11933;SDS011;6026;48.784;9.198;2022-09-12T13:14:55;1.02;;;1.02;;
11933;SDS011;6026;48.784;9.198;2022-09-12T13:17:50;1.10;;;1.10;;
11933;SDS011;6026;48.784;9.198;2022-09-12T13:20:23;1.15;;;1.15;;
11933;SDS011;6026;48.784;9.198;2022-09-12T13:22:55;1.08;;;1.08;;
11933;SDS011;6026;48.784;9.198;2022-09-12T13:25:23;1.08;;;1.08;;
11933;SDS011;6026;48.784;9.198;2022-09-12T13:27:59;1.20;;;1.20;;
11933;SDS011;6026;48.784;9.198;2022-09-12T13:30:29;1.08;;;1.08;;
11933;SDS011;6026;48.784;9.198;2022-09-12T13:33:17;1.10;;;1.10;;
11933;SDS011;6026;48.784;9.198;2022-09-12T13:44:57;1.00;;;1.00;;
11933;SDS011;6026;48.784;9.198;2022-09-12T13:47:35;1.08;;;1.08;;
11933;SDS011;6026;48.784;9.198;2022-09-12T13:50:13;1.20;;;1.20;;
11933;SDS011;6026;48.784;9.198;2022-09-12T13:52:48;1.10;;;1.10;;
11933;SDS011;6026;48.784;9.198;2022-09-12T13:55:27;1.10;;;1.10;;
11933;SDS011;6026;48.784;9.198;2022-09-12T13:58:01;1.00;;;1.00;;
11933;SDS011;6026;48.784;9.198;2022-09-12T14:00:32;1.10;;;1.10;;
11933;SDS011;6026;48.784;9.198;2022-09-12T14:06:11;1.10;;;1.10;;
11933;SDS011;6026;48.784;9.198;2022-09-12T14:08:39;1.10;;;1.10;;
11933;SDS011;6026;48.784;9.198;2022-09-12T14:11:16;1.10;;;1.10;;
11933;SDS011;6026;48.784;9.198;2022-09-12T14:13:50;1.10;;;1.10;;
11933;SDS011;6026;48.784;9.198;2022-09-12T14:16:17;1.08;;;1.08;;
11933;SDS011;6026;48.784;9.198;2022-09-12T14:18:48;1.10;;;1.10;;
11933;SDS011;6026;48.784;9.198;2022-09-12T14:23:55;1.10;;;1.10;;
11933;SDS011;6026;48.784;9.198;2022-09-12T14:26:21;1.00;;;1.00;;
11933;SDS011;6026;48.784;9.198;2022-09-12T14:28:48;1.08;;;1.08;;
11933;SDS011;6026;48.784;9.198;2022-09-12T14:33:51;1.10;;;1.10;;
11933;SDS011;6026;48.784;9.198;2022-09-12T14:39:01;1.10;;;1.10;;
11933;SDS011;6026;48.784;9.198;2022-09-12T14:41:33;1.00;;;1.00;;
11933;SDS011;6026;48.784;9.198;2022-09-12T14:44:03;1.00;;;1.00;;
11933;SDS011;6026;48.784;9.198;2022-09-12T14:47:09;1.02;;;1.02;;
11933;SDS011;6026;48.784;9.198;2022-09-12T14:49:37;1.05;;;1.05;;
11933;SDS011;6026;48.784;9.198;2022-09-12T14:52:04;1.05;;;1.05;;
11933;SDS011;6026;48.784;9.198;2022-09-12T14:57:01;1.10;;;1.10;;
11933;SDS011;6026;48.784;9.198;2022-09-12T15:04:52;1.00;;;1.00;;
11933;SDS011;6026;48.784;9.198;2022-09-12T15:07:40;1.00;;;1.00;;
11933;SDS011;6026;48.784;9.198;2022-09-12T15:12:46;1.00;;;1.00;;
11933;SDS011;6026;48.784;9.198;2022-09-12T15:15:12;0.90;;;0.90;;
11933;SDS011;6026;48.784;9.198;2022-09-12T15:17:40;0.93;;;0.93;;
11933;SDS011;6026;48.784;9.198;2022-09-12T15:20:06;1.00;;;1.00;;
11933;SDS011;6026;48.784;9.198;2022-09-12T15:22:32;1.00;;;1.00;;
11933;SDS011;6026;48.784;9.198;2022-09-12T15:24:59;1.00;;;1.00;;
11933;SDS011;6026;48.784;9.198;2022-09-12T15:27:25;1.00;;;1.00;;
11933;SDS011;6026;48.784;9.198;2022-09-12T15:29:51;1.00;;;1.00;;
11933;SDS011;6026;48.784;9.198;2022-09-12T15:32:27;1.00;;;1.00;;
11933;SDS011;6026;48.784;9.198;2022-09-12T15:34:54;0.90;;;0.90;;
11933;SDS011;6026;48.784;9.198;2022-09-12T15:37:20;1.00;;;1.00;;
11933;SDS011;6026;48.784;9.198;2022-09-12T15:39:47;1.00;;;1.00;;
11933;SDS011;6026;48.784;9.198;2022-09-12T15:42:14;1.00;;;1.00;;
11933;SDS011;6026;48.784;9.198;2022-09-12T15:44:41;1.00;;;1.00;;
11933;SDS011;6026;48.784;9.198;2022-09-12T15:47:08;1.00;;;1.00;;
11933;SDS011;6026;48.784;9.198;2022-09-12T15:49:36;1.00;;;1.00;;
11933;SDS011;6026;48.784;9.198;2022-09-12T15:52:02;1.10;;;1.10;;
11933;SDS011;6026;48.784;9.198;2022-09-12T15:54:28;1.00;;;1.00;;
11933;SDS011;6026;48.784;9.198;2022-09-12T15:56:53;1.05;;;1.05;;
11933;SDS011;6026;48.784;9.198;2022-09-12T15:59:19;1.00;;;1.00;;
11933;SDS011;6026;48.784;9.198;2022-09-12T16:01:45;1.00;;;1.00;;
11933;SDS011;6026;48.784;9.198;2022-09-12T16:04:21;1.00;;;1.00;;
11933;SDS011;6026;48.784;9.198;2022-09-12T16:06:51;1.05;;;1.05;;
11933;SDS011;6026;48.784;9.198;2022-09-12T16:09:18;1.00;;;1.00;;
11933;SDS011;6026;48.784;9.198;2022-09-12T16:11:44;0.93;;;0.93;;
11933;SDS011;6026;48.784;9.198;2022-09-12T16:14:14;1.00;;;1.00;;
11933;SDS011;6026;48.784;9.198;2022-09-12T16:16:43;1.00;;;1.00;;
11933;SDS011;6026;48.784;9.198;2022-09-12T16:19:15;1.00;;;1.00;;
11933;SDS011;6026;48.784;9.198;2022-09-12T16:21:40;0.90;;;0.90;;
11933;SDS011;6026;48.784;9.198;2022-09-12T16:24:06;0.85;;;0.85;;
11933;SDS011;6026;48.784;9.198;2022-09-12T16:26:31;1.00;;;1.00;;
11933;SDS011;6026;48.784;9.198;2022-09-12T16:28:57;1.00;;;1.00;;
11933;SDS011;6026;48.784;9.198;2022-09-12T16:31:23;1.00;;;1.00;;
11933;SDS011;6026;48.784;9.198;2022-09-12T16:33:49;0.90;;;0.90;;
11933;SDS011;6026;48.784;9.198;2022-09-12T16:36:17;0.90;;;0.90;;
11933;SDS011;6026;48.784;9.198;2022-09-12T16:38:44;0.70;;;0.70;;
11933;SDS011;6026;48.784;9.198;2022-09-12T16:41:11;0.90;;;0.90;;
11933;SDS011;6026;48.784;9.198;2022-09-12T16:43:38;0.90;;;0.90;;
11933;SDS011;6026;48.784;9.198;2022-09-12T16:46:14;0.80;;;0.80;;
11933;SDS011;6026;48.784;9.198;2022-09-12T16:48:44;0.88;;;0.88;;
11933;SDS011;6026;48.784;9.198;2022-09-12T16:51:15;1.00;;;1.00;;
11933;SDS011;6026;48.784;9.198;2022-09-12T16:53:44;1.00;;;1.00;;
11933;SDS011;6026;48.784;9.198;2022-09-12T16:56:10;1.00;;;1.00;;
11933;SDS011;6026;48.784;9.198;2022-09-12T16:58:37;0.90;;;0.90;;
11933;SDS011;6026;48.784;9.198;2022-09-12T17:01:09;0.95;;;0.95;;
11933;SDS011;6026;48.784;9.198;2022-09-12T17:03:36;0.90;;;0.90;;
11933;SDS011;6026;48.784;9.198;2022-09-12T17:06:03;0.90;;;0.90;;
11933;SDS011;6026;48.784;9.198;2022-09-12T17:08:34;1.00;;;1.00;;
11933;SDS011;6026;48.784;9.198;2022-09-12T17:11:02;0.90;;;0.90;;
11933;SDS011;6026;48.784;9.198;2022-09-12T17:13:29;0.90;;;0.90;;
11933;SDS011;6026;48.784;9.198;2022-09-12T17:15:54;0.80;;;0.80;;
11933;SDS011;6026;48.784;9.198;2022-09-12T17:18:21;0.80;;;0.80;;
11933;SDS011;6026;48.784;9.198;2022-09-12T17:20:47;0.80;;;0.80;;
11933;SDS011;6026;48.784;9.198;2022-09-12T17:23:13;0.93;;;0.93;;
11933;SDS011;6026;48.784;9.198;2022-09-12T17:25:38;0.90;;;0.90;;
11933;SDS011;6026;48.784;9.198;2022-09-12T17:28:04;0.90;;;0.90;;
11933;SDS011;6026;48.784;9.198;2022-09-12T17:30:33;0.90;;;0.90;;
11933;SDS011;6026;48.784;9.198;2022-09-12T17:32:59;0.80;;;0.80;;
11933;SDS011;6026;48.784;9.198;2022-09-12T17:35:25;0.90;;;0.90;;
11933;SDS011;6026;48.784;9.198;2022-09-12T17:37:51;0.80;;;0.80;;
11933;SDS011;6026;48.784;9.198;2022-09-12T17:40:16;0.88;;;0.88;;
11933;SDS011;6026;48.784;9.198;2022-09-12T17:42:42;0.95;;;0.95;;
11933;SDS011;6026;48.784;9.198;2022-09-12T17:45:09;0.95;;;0.95;;
11933;SDS011;6026;48.784;9.198;2022-09-12T17:47:36;0.65;;;0.65;;
11933;SDS011;6026;48.784;9.198;2022-09-12T17:50:03;0.90;;;0.90;;
11933;SDS011;6026;48.784;9.198;2022-09-12T17:52:29;1.00;;;1.00;;
11933;SDS011;6026;48.784;9.198;2022-09-12T17:54:54;0.90;;;0.90;;
11933;SDS011;6026;48.784;9.198;2022-09-12T17:57:20;1.17;;;1.17;;
11933;SDS011;6026;48.784;9.198;2022-09-12T17:59:46;0.80;;;0.80;;
11933;SDS011;6026;48.784;9.198;2022-09-12T18:02:12;0.80;;;0.80;;
11933;SDS011;6026;48.784;9.198;2022-09-12T18:04:42;0.70;;;0.70;;
11933;SDS011;6026;48.784;9.198;2022-09-12T18:07:13;0.60;;;0.60;;
11933;SDS011;6026;48.784;9.198;2022-09-12T18:09:39;0.83;;;0.83;;
11933;SDS011;6026;48.784;9.198;2022-09-12T18:12:06;0.80;;;0.80;;
11933;SDS011;6026;48.784;9.198;2022-09-12T18:14:32;0.80;;;0.80;;
11933;SDS011;6026;48.784;9.198;2022-09-12T18:16:58;0.80;;;0.80;;
11933;SDS011;6026;48.784;9.198;2022-09-12T18:19:24;0.80;;;0.80;;
11933;SDS011;6026;48.784;9.198;2022-09-12T18:21:51;0.70;;;0.70;;
11933;SDS011;6026;48.784;9.198;2022-09-12T18:24:17;0.83;;;0.83;;
11933;SDS011;6026;48.784;9.198;2022-09-12T18:26:43;0.70;;;0.70;;
11933;SDS011;6026;48.784;9.198;2022-09-12T18:29:09;0.70;;;0.70;;
11933;SDS011;6026;48.784;9.198;2022-09-12T18:31:35;0.80;;;0.80;;
11933;SDS011;6026;48.784;9.198;2022-09-12T18:34:00;0.80;;;0.80;;
11933;SDS011;6026;48.784;9.198;2022-09-12T18:36:27;0.90;;;0.90;;
11933;SDS011;6026;48.784;9.198;2022-09-12T18:38:53;0.60;;;0.60;;
11933;SDS011;6026;48.784;9.198;2022-09-12T18:41:21;0.83;;;0.83;;
11933;SDS011;6026;48.784;9.198;2022-09-12T18:43:52;0.70;;;0.70;;
11933;SDS011;6026;48.784;9.198;2022-09-12T18:46:18;0.80;;;0.80;;
11933;SDS011;6026;48.784;9.198;2022-09-12T18:48:44;0.70;;;0.70;;